createdAt,value
2024-01-14T00:01:31.722Z,99990.97
2024-01-14T00:03:58.171Z,99993.81
2024-01-14T00:06:24.807Z,99984.41
2024-01-14T00:08:51.393Z,100007.69
2024-01-14T00:11:17.879Z,100000.31
2024-01-14T00:13:47.438Z,99996.44
2024-01-14T00:16:13.938Z,99982.38
2024-01-14T00:18:40.492Z,100006.69
2024-01-14T00:21:06.975Z,99999.63
2024-01-14T00:23:33.510Z,99996.44
2024-01-14T00:26:00.107Z,100002.25
2024-01-14T00:28:26.615Z,99991.47
2024-01-14T00:30:55.169Z,99983.41
2024-01-14T00:33:21.963Z,99970.72
2024-01-14T00:35:48.449Z,99979.53
2024-01-14T00:38:15.425Z,99981.28
2024-01-14T00:40:42.315Z,99974.09
2024-01-14T00:43:08.860Z,99971.47
2024-01-14T00:45:35.661Z,99967.94
2024-01-14T00:48:03.184Z,99960.94
2024-01-14T00:50:29.985Z,99961.22
2024-01-14T00:52:56.526Z,99953.16
2024-01-14T00:55:32.919Z,99949.97
2024-01-14T00:58:00.184Z,99937.22
2024-01-14T01:00:26.844Z,99936.69
2024-01-14T01:02:55.035Z,99925.88
2024-01-14T01:05:21.558Z,99927.69
2024-01-14T01:07:48.018Z,99923.03
2024-01-14T01:10:14.744Z,99923.25
2024-01-14T01:12:41.601Z,99924.38
2024-01-14T01:15:08.555Z,99913.94
2024-01-14T01:17:35.264Z,99910.19
2024-01-14T01:20:02.715Z,99898.84
2024-01-14T01:22:32.040Z,99913.69
2024-01-14T01:24:58.610Z,99897.38
2024-01-14T01:27:25.142Z,99896.41
2024-01-14T01:29:51.768Z,99909.91
2024-01-14T01:32:19.235Z,99896.75
2024-01-14T01:34:46.030Z,99909.53
2024-01-14T01:37:13.051Z,99889.31
2024-01-14T01:39:39.714Z,99885.53
2024-01-14T01:42:06.493Z,99885.44
2024-01-14T01:44:33.210Z,99902.00
2024-01-14T01:47:00.279Z,99896.94
2024-01-14T01:49:28.718Z,99905.97
2024-01-14T01:51:59.792Z,99888.38
2024-01-14T01:54:28.641Z,99910.81
2024-01-14T01:56:56.416Z,99908.94
2024-01-14T01:59:23.153Z,99921.84
2024-01-14T02:01:49.958Z,99902.81
2024-01-14T02:04:19.398Z,99919.69
2024-01-14T02:06:45.773Z,99917.78
2024-01-14T02:09:12.338Z,99898.59
2024-01-14T02:11:38.887Z,99916.94
2024-01-14T02:14:06.194Z,99896.94
2024-01-14T02:16:38.292Z,99906.63
2024-01-14T02:19:04.949Z,99888.41
2024-01-14T02:21:36.098Z,99900.31
2024-01-14T02:24:34.087Z,99925.50
2024-01-14T02:27:00.663Z,99927.34
2024-01-14T02:29:29.171Z,99935.28
2024-01-14T02:31:56.472Z,99927.56
2024-01-14T02:34:23.820Z,99924.00
2024-01-14T02:36:53.242Z,99915.69
2024-01-14T02:39:19.796Z,99928.13
2024-01-14T02:41:46.292Z,99919.63
2024-01-14T02:44:12.753Z,99911.41
2024-01-14T02:46:39.636Z,99911.78
2024-01-14T02:49:06.321Z,99945.56
2024-01-14T02:51:36.076Z,99932.56
2024-01-14T02:54:02.910Z,99946.66
2024-01-14T02:56:30.226Z,99952.50
2024-01-14T02:58:59.682Z,99956.91
2024-01-14T03:01:26.178Z,99963.19
2024-01-14T03:03:52.774Z,99966.75
2024-01-14T03:06:19.494Z,99969.16
2024-01-14T03:08:46.871Z,99982.38
2024-01-14T03:11:13.499Z,99960.78
2024-01-14T03:13:39.994Z,99979.81
2024-01-14T03:16:06.605Z,99960.41
2024-01-14T03:18:33.170Z,99967.44
2024-01-14T03:21:00.047Z,99979.03
2024-01-14T03:23:26.600Z,99977.03
2024-01-14T03:25:53.285Z,99976.94
2024-01-14T03:28:19.780Z,99958.91
2024-01-14T03:30:46.343Z,99958.59
2024-01-14T03:33:13.100Z,99974.28
2024-01-14T03:35:39.584Z,99968.38
2024-01-14T03:38:07.011Z,99954.41
2024-01-14T03:40:33.472Z,99963.59
2024-01-14T03:42:59.999Z,99943.19
2024-01-14T03:45:26.695Z,99936.94
2024-01-14T03:47:53.311Z,99971.41
2024-01-14T03:50:19.840Z,99960.28
2024-01-14T03:52:49.275Z,99957.28
2024-01-14T03:55:15.967Z,99967.84
2024-01-14T03:57:42.588Z,99962.28
2024-01-14T04:00:09.855Z,99962.78
2024-01-14T04:02:36.481Z,99957.06
2024-01-14T04:05:05.571Z,99937.31
2024-01-14T04:07:35.307Z,99929.34
2024-01-14T04:10:05.075Z,99940.44
2024-01-14T04:12:31.629Z,99938.06
2024-01-14T04:14:58.350Z,99941.47
2024-01-14T04:17:25.007Z,99937.63
2024-01-14T04:19:52.108Z,99936.06
2024-01-14T04:22:18.680Z,99930.25
2024-01-14T04:24:45.138Z,99905.44
2024-01-14T04:27:11.669Z,99894.31
2024-01-14T04:29:41.471Z,99910.53
2024-01-14T04:32:08.062Z,99902.75
2024-01-14T04:34:35.502Z,99914.81
2024-01-14T04:37:02.247Z,99899.34
2024-01-14T04:39:28.950Z,99891.09
2024-01-14T04:41:55.986Z,99880.75
2024-01-14T04:44:25.244Z,99892.88
2024-01-14T04:46:51.686Z,99881.84
2024-01-14T04:49:18.421Z,99860.03
2024-01-14T04:51:45.009Z,99875.59
2024-01-14T04:54:15.793Z,99861.31
2024-01-14T04:56:42.737Z,99865.06
2024-01-14T04:59:09.169Z,99853.03
2024-01-14T05:01:35.766Z,99849.06
2024-01-14T05:04:02.784Z,99833.59
2024-01-14T05:06:34.203Z,99839.38
2024-01-14T05:09:00.730Z,99841.75
2024-01-14T05:11:27.444Z,99835.59
2024-01-14T05:13:54.062Z,99839.09
2024-01-14T05:16:20.573Z,99841.44
2024-01-14T05:18:47.297Z,99807.53
2024-01-14T05:21:18.168Z,99816.91
2024-01-14T05:23:45.035Z,99820.63
2024-01-14T05:26:11.976Z,99808.34
2024-01-14T05:28:38.468Z,99808.72
2024-01-14T05:31:05.219Z,99810.41
2024-01-14T05:33:31.944Z,99803.28
2024-01-14T05:36:02.059Z,99804.06
2024-01-14T05:38:28.568Z,99804.84
2024-01-14T05:40:55.907Z,99799.31
2024-01-14T05:43:22.398Z,99812.22
2024-01-14T05:45:53.967Z,99793.19
2024-01-14T05:48:26.250Z,99788.06
2024-01-14T05:50:52.983Z,99794.16
2024-01-14T05:53:19.511Z,99787.28
2024-01-14T05:55:47.090Z,99792.66
2024-01-14T05:58:16.247Z,99763.66
2024-01-14T06:00:42.893Z,99747.72
2024-01-14T06:03:09.538Z,99736.66
2024-01-14T06:05:36.211Z,99765.41
2024-01-14T06:08:02.822Z,99759.13
2024-01-14T06:10:31.982Z,99763.09
2024-01-14T06:12:58.474Z,99735.69
2024-01-14T06:15:25.185Z,99750.50
2024-01-14T06:17:51.862Z,99734.97
2024-01-14T06:20:18.594Z,99742.16
2024-01-14T06:22:45.374Z,99733.25
2024-01-14T06:25:11.864Z,99715.47
2024-01-14T06:27:38.317Z,99707.03
2024-01-14T06:30:05.474Z,99707.16
2024-01-14T06:32:35.176Z,99711.59
2024-01-14T06:35:01.672Z,99709.28
2024-01-14T06:37:28.366Z,99703.53
2024-01-14T06:39:54.918Z,99705.66
2024-01-14T06:42:21.479Z,99689.66
2024-01-14T06:44:48.195Z,99695.28
2024-01-14T06:47:14.759Z,99689.00
2024-01-14T06:49:41.464Z,99680.38
2024-01-14T06:52:08.201Z,99660.59
2024-01-14T06:54:38.727Z,99660.75
2024-01-14T06:57:05.549Z,99646.25
2024-01-14T06:59:32.014Z,99666.53
2024-01-14T07:01:58.444Z,99662.41
2024-01-14T07:04:24.946Z,99669.47
2024-01-14T07:06:51.468Z,99657.19
2024-01-14T07:09:18.072Z,99630.03
2024-01-14T07:11:44.528Z,99656.22
2024-01-14T07:14:10.988Z,99661.44
2024-01-14T07:16:37.709Z,99646.00
2024-01-14T07:19:04.658Z,99665.59
2024-01-14T07:21:34.129Z,99657.38
2024-01-14T07:24:00.777Z,99652.84
2024-01-14T07:26:27.616Z,99662.34
2024-01-14T07:28:57.106Z,99654.75
2024-01-14T07:31:30.381Z,99662.81
2024-01-14T07:33:57.306Z,99662.91
2024-01-14T07:36:24.258Z,99655.66
2024-01-14T07:38:52.537Z,99649.81
2024-01-14T07:41:19.097Z,99660.75
2024-01-14T07:43:45.738Z,99634.41
2024-01-14T07:46:12.587Z,99648.88
2024-01-14T07:48:39.424Z,99648.97
2024-01-14T07:51:06.255Z,99633.50
2024-01-14T07:53:33.064Z,99624.88
2024-01-14T07:55:59.683Z,99632.50
2024-01-14T07:58:26.392Z,99620.84
2024-01-14T08:01:01.931Z,99629.81
2024-01-14T08:03:31.657Z,99606.31
2024-01-14T08:06:02.020Z,99612.31
2024-01-14T08:08:29.375Z,99615.81
2024-01-14T08:10:56.256Z,99629.25
2024-01-14T08:13:22.666Z,99650.53
2024-01-14T08:15:58.097Z,99641.69
2024-01-14T08:18:32.340Z,99649.75
2024-01-14T08:20:59.728Z,99635.25
2024-01-14T08:23:26.380Z,99626.34
2024-01-14T08:25:53.023Z,99618.22
2024-01-14T08:28:19.593Z,99601.38
2024-01-14T08:30:46.298Z,99615.13
2024-01-14T08:33:13.086Z,99631.53
2024-01-14T08:35:39.776Z,99599.72
2024-01-14T08:38:06.335Z,99601.59
2024-01-14T08:40:32.855Z,99617.69
2024-01-14T08:42:59.403Z,99603.19
2024-01-14T08:45:28.484Z,99622.34
2024-01-14T08:47:55.253Z,99582.84
2024-01-14T08:50:21.888Z,99593.38
2024-01-14T08:52:48.416Z,99597.84
2024-01-14T08:55:15.013Z,99580.94
2024-01-14T08:57:42.182Z,99609.09
2024-01-14T09:00:10.018Z,99591.75
2024-01-14T09:02:36.559Z,99586.78
2024-01-14T09:05:03.218Z,99584.34
2024-01-14T09:07:32.194Z,99583.94
2024-01-14T09:09:58.820Z,99566.81
2024-01-14T09:12:25.521Z,99573.31
2024-01-14T09:14:51.957Z,99586.38
2024-01-14T09:17:18.398Z,99569.59
2024-01-14T09:19:46.007Z,99585.63
2024-01-14T09:22:12.681Z,99580.41
2024-01-14T09:24:39.354Z,99578.13
2024-01-14T09:27:06.356Z,99560.59
2024-01-14T09:29:32.902Z,99548.19
2024-01-14T09:32:23.455Z,99558.41
2024-01-14T09:41:34.660Z,99591.13
2024-01-14T09:44:04.400Z,99594.28
2024-01-14T09:47:25.861Z,99565.09
2024-01-14T09:49:54.382Z,99592.06
2024-01-14T09:52:22.718Z,99586.75
2024-01-14T09:54:49.352Z,99569.31
2024-01-14T09:57:19.369Z,99559.13
2024-01-14T09:59:48.129Z,99582.25
2024-01-14T10:02:20.524Z,99553.06
2024-01-14T10:04:47.024Z,99556.47
2024-01-14T10:07:13.738Z,99548.88
2024-01-14T10:09:51.613Z,99586.00
2024-01-14T10:12:18.113Z,99573.19
2024-01-14T10:14:44.880Z,99578.41
2024-01-14T10:17:15.033Z,99533.19
2024-01-14T10:19:42.861Z,99564.97
2024-01-14T10:22:15.651Z,99567.31
2024-01-14T10:24:51.183Z,99564.63
2024-01-14T10:27:33.788Z,99533.97
2024-01-14T10:30:04.769Z,99565.06
2024-01-14T10:33:14.747Z,99557.63
2024-01-14T10:35:19.571Z,99538.41
2024-01-14T10:37:46.238Z,99553.53
2024-01-14T10:40:13.629Z,99562.88
2024-01-14T10:42:40.165Z,99564.56
2024-01-14T10:45:07.560Z,99531.06
2024-01-14T10:47:37.667Z,99563.81
2024-01-14T10:50:08.198Z,99554.88
2024-01-14T10:52:39.091Z,99552.75
2024-01-14T10:55:28.415Z,99539.25
2024-01-14T10:57:57.826Z,99518.03
2024-01-14T11:00:24.719Z,99513.59
2024-01-14T11:02:52.221Z,99481.97
2024-01-14T11:05:19.783Z,99507.25
2024-01-14T11:07:47.608Z,99482.63
2024-01-14T11:10:17.335Z,99480.09
2024-01-14T11:13:09.333Z,99451.31
2024-01-14T11:15:48.829Z,99480.25
2024-01-14T11:18:28.317Z,99473.75
2024-01-14T11:21:20.330Z,99469.47
2024-01-14T11:23:57.244Z,99470.41
2024-01-14T11:26:27.492Z,99467.91
2024-01-14T11:28:54.646Z,99506.53
2024-01-14T11:31:21.937Z,99495.28
2024-01-14T11:33:48.678Z,99485.31
2024-01-14T11:36:54.871Z,99482.19
2024-01-14T11:39:21.471Z,99448.72
2024-01-14T11:41:48.143Z,99436.94
2024-01-14T11:44:30.745Z,99450.72
2024-01-14T11:46:58.330Z,99463.84
2024-01-14T11:49:28.622Z,99459.94
2024-01-14T11:51:55.279Z,99462.84
2024-01-14T11:54:23.964Z,99412.97
2024-01-14T11:56:50.806Z,99450.31
2024-01-14T11:59:30.137Z,99425.69
2024-01-14T12:02:04.473Z,99417.53
2024-01-14T12:04:31.011Z,99425.56
2024-01-14T12:06:57.720Z,99397.75
2024-01-14T12:09:24.314Z,99430.28
2024-01-14T12:11:50.893Z,99400.03
2024-01-14T12:14:17.354Z,99381.16
2024-01-14T12:16:46.824Z,99406.09
2024-01-14T12:19:16.151Z,99383.66
2024-01-14T12:21:43.198Z,99376.38
2024-01-14T12:24:12.949Z,99412.09
2024-01-14T12:26:48.268Z,99383.34
2024-01-14T12:29:14.773Z,99365.47
2024-01-14T12:31:49.959Z,99370.19
2024-01-14T12:34:24.275Z,99332.75
2024-01-14T12:36:55.103Z,99359.88
2024-01-14T12:40:12.781Z,99333.44
2024-01-14T12:42:39.870Z,99310.09
2024-01-14T12:45:06.880Z,99338.94
2024-01-14T12:47:33.587Z,99295.69
2024-01-14T12:50:01.503Z,99324.84
2024-01-14T12:52:30.873Z,99305.22
2024-01-14T12:54:57.308Z,99298.69
2024-01-14T12:57:25.203Z,99306.59
2024-01-14T12:59:53.035Z,99306.63
2024-01-14T13:02:19.921Z,99262.47
2024-01-14T13:04:46.640Z,99282.69
2024-01-14T13:07:14.062Z,99303.19
2024-01-14T13:09:41.524Z,99275.94
2024-01-14T13:12:08.468Z,99269.69
2024-01-14T13:14:35.124Z,99269.41
2024-01-14T13:17:01.834Z,99269.38
2024-01-14T13:19:28.681Z,99277.53
2024-01-14T13:21:55.302Z,99296.09
2024-01-14T13:24:21.878Z,99285.09
2024-01-14T13:26:48.615Z,99266.69
2024-01-14T13:29:15.116Z,99269.06
2024-01-14T13:31:42.019Z,99274.53
2024-01-14T13:34:09.369Z,99251.16
2024-01-14T13:36:36.832Z,99273.22
2024-01-14T13:39:03.990Z,99265.28
2024-01-14T13:41:33.378Z,99251.81
2024-01-14T13:44:12.647Z,99237.41
2024-01-14T13:46:45.262Z,99264.78
2024-01-14T13:49:12.322Z,99259.75
2024-01-14T13:51:40.583Z,99234.56
2024-01-14T13:54:12.997Z,99261.34
2024-01-14T13:56:48.825Z,99224.34
2024-01-14T13:59:15.274Z,99207.59
2024-01-14T14:01:42.029Z,99244.13
2024-01-14T14:04:10.307Z,99222.78
2024-01-14T14:06:39.035Z,99232.69
2024-01-14T14:09:07.887Z,99221.72
2024-01-14T14:11:35.408Z,99230.13
2024-01-14T14:14:04.318Z,99215.94
2024-01-14T14:16:39.480Z,99231.63
2024-01-14T14:19:12.562Z,99221.72
2024-01-14T14:21:51.054Z,99240.03
2024-01-14T14:24:25.818Z,99242.13
2024-01-14T14:26:52.437Z,99235.31
2024-01-14T14:29:21.006Z,99236.91
2024-01-14T14:31:50.486Z,99195.94
2024-01-14T14:34:18.128Z,99237.69
2024-01-14T14:36:45.310Z,99208.84
2024-01-14T14:39:12.130Z,99212.00
2024-01-14T14:41:38.795Z,99219.59
2024-01-14T14:44:05.682Z,99209.34
2024-01-14T14:46:32.576Z,99215.66
2024-01-14T14:48:59.409Z,99192.88
2024-01-14T14:51:33.511Z,99217.81
2024-01-14T14:54:08.761Z,99191.66
2024-01-14T14:56:35.859Z,99204.75
2024-01-14T14:59:02.675Z,99197.94
2024-01-14T15:01:37.000Z,99166.47
2024-01-14T15:04:09.298Z,99186.47
2024-01-14T15:06:36.200Z,99175.97
2024-01-14T15:09:02.876Z,99158.66
2024-01-14T15:11:31.753Z,99192.19
2024-01-14T15:14:01.862Z,99171.47
2024-01-14T15:16:28.721Z,99156.81
2024-01-14T15:18:55.547Z,99152.41
2024-01-14T15:21:24.815Z,99133.22
2024-01-14T15:23:51.445Z,99145.81
2024-01-14T15:26:17.960Z,99153.44
2024-01-14T15:28:53.536Z,99159.47
2024-01-14T15:31:20.347Z,99141.34
2024-01-14T15:33:56.507Z,99143.66
2024-01-14T15:36:24.456Z,99152.09
2024-01-14T15:38:51.639Z,99115.91
2024-01-14T15:41:18.491Z,99127.69
2024-01-14T15:43:45.152Z,99108.03
2024-01-14T15:46:11.961Z,99135.06
2024-01-14T15:48:41.988Z,99103.59
2024-01-14T15:51:12.636Z,99123.00
2024-01-14T15:53:41.571Z,99137.69
2024-01-14T15:56:08.358Z,99135.41
2024-01-14T15:58:35.430Z,99101.59
2024-01-14T16:01:08.548Z,99127.81
2024-01-14T16:03:37.381Z,99088.19
2024-01-14T16:06:04.743Z,99106.84
2024-01-14T16:08:31.254Z,99094.22
2024-01-14T16:11:05.114Z,99124.16
2024-01-14T16:13:33.551Z,99108.41
2024-01-14T16:16:00.292Z,99122.56
2024-01-14T16:18:27.036Z,99098.22
2024-01-14T16:21:02.711Z,99123.66
2024-01-14T16:23:35.504Z,99088.81
2024-01-14T16:26:03.356Z,99107.44
2024-01-14T16:28:30.526Z,99093.31
2024-01-14T16:31:06.116Z,99100.91
2024-01-14T16:33:39.431Z,99073.38
2024-01-14T16:36:07.612Z,99072.63
2024-01-14T16:38:34.381Z,99086.25
2024-01-14T16:41:06.304Z,99068.22
2024-01-14T16:43:37.558Z,99074.22
2024-01-14T16:46:05.187Z,99079.22
2024-01-14T16:48:32.989Z,99043.78
2024-01-14T16:51:07.432Z,99057.69
2024-01-14T16:53:37.740Z,99056.38
2024-01-14T16:56:04.603Z,99072.34
2024-01-14T16:58:31.811Z,99067.59
2024-01-14T17:01:08.703Z,99071.81
2024-01-14T17:03:43.352Z,99063.19
2024-01-14T17:06:15.757Z,99073.72
2024-01-14T17:08:47.061Z,99052.72
2024-01-14T17:11:14.029Z,99063.44
2024-01-14T17:13:40.901Z,99054.28
2024-01-14T17:16:11.126Z,99038.84
2024-01-14T17:18:40.235Z,99049.03
2024-01-14T17:21:07.659Z,99070.56
2024-01-14T17:23:34.422Z,99071.06
2024-01-14T17:26:07.227Z,99055.31
2024-01-14T17:28:35.458Z,99034.16
2024-01-14T17:31:01.994Z,99060.34
2024-01-14T17:33:28.926Z,99021.28
2024-01-14T17:36:04.380Z,99019.16
2024-01-14T17:38:35.290Z,99055.09
2024-01-14T17:41:01.780Z,99043.53
2024-01-14T17:43:29.667Z,99048.00
2024-01-14T17:46:05.521Z,99038.09
2024-01-14T17:48:35.793Z,99044.06
2024-01-14T17:51:03.279Z,99046.16
2024-01-14T17:53:32.928Z,99054.22
2024-01-14T17:56:02.219Z,99049.25
2024-01-14T17:58:28.724Z,99024.88
2024-01-14T18:00:55.664Z,99027.22
2024-01-14T18:03:25.167Z,99030.66
2024-01-14T18:05:53.266Z,98998.63
2024-01-14T18:08:22.651Z,99042.81
2024-01-14T18:10:49.367Z,99004.47
2024-01-14T18:13:16.414Z,99030.09
2024-01-14T18:15:44.725Z,99044.47
2024-01-14T18:18:12.380Z,99012.13
2024-01-14T18:20:39.315Z,99005.59
2024-01-14T18:23:10.858Z,99042.78
2024-01-14T18:25:43.270Z,99033.28
2024-01-14T18:28:10.289Z,99046.44
2024-01-14T18:30:37.010Z,99029.91
2024-01-14T18:33:10.703Z,99023.16
2024-01-14T18:35:46.949Z,99012.38
2024-01-14T18:38:14.745Z,99041.00
2024-01-14T18:40:43.827Z,98997.44
2024-01-14T18:43:11.030Z,99012.91
2024-01-14T18:45:40.705Z,99030.00
2024-01-14T18:48:10.322Z,99016.63
2024-01-14T18:50:39.924Z,99025.88
2024-01-14T18:53:10.724Z,99020.94
2024-01-14T18:55:37.146Z,99013.88
2024-01-14T18:58:07.898Z,98994.47
2024-01-14T19:00:35.097Z,98984.50
2024-01-14T19:03:01.809Z,98989.13
2024-01-14T19:05:28.562Z,99002.47
2024-01-14T19:07:57.591Z,98994.94
2024-01-14T19:10:24.262Z,98969.06
2024-01-14T19:12:53.475Z,98976.94
2024-01-14T19:15:22.067Z,98956.56
2024-01-14T19:17:48.716Z,98971.19
2024-01-14T19:20:15.413Z,98959.72
2024-01-14T19:22:41.959Z,98959.69
2024-01-14T19:25:10.637Z,98959.44
2024-01-14T19:27:37.627Z,98947.88
2024-01-14T19:30:04.565Z,98969.28
2024-01-14T19:32:33.574Z,98931.28
2024-01-14T19:35:00.418Z,98956.25
2024-01-14T19:37:27.054Z,98964.63
2024-01-14T19:40:03.597Z,98956.75
2024-01-14T19:42:30.423Z,98942.66
2024-01-14T19:44:57.081Z,98930.88
2024-01-14T19:47:23.620Z,98943.59
2024-01-14T19:49:50.228Z,98939.53
2024-01-14T19:52:16.693Z,98947.69
2024-01-14T19:54:43.236Z,98940.25
2024-01-14T19:57:09.828Z,98966.72
2024-01-14T19:59:36.268Z,98951.25
2024-01-14T20:02:04.859Z,98963.75
2024-01-14T20:04:31.379Z,98930.00
2024-01-14T20:06:58.234Z,98955.97
2024-01-14T20:09:25.317Z,98960.44
2024-01-14T20:11:52.351Z,98975.59
2024-01-14T20:14:21.526Z,98960.16
2024-01-14T20:16:48.091Z,98937.34
2024-01-14T20:19:15.185Z,98956.22
2024-01-14T20:21:42.920Z,98976.38
2024-01-14T20:24:09.551Z,98976.16
2024-01-14T20:26:38.497Z,98941.84
2024-01-14T20:29:07.500Z,98973.22
2024-01-14T20:31:34.047Z,98977.72
2024-01-14T20:34:04.291Z,98985.00
2024-01-14T20:36:33.456Z,98997.84
2024-01-14T20:39:03.076Z,98996.72
2024-01-14T20:41:29.626Z,98998.28
2024-01-14T20:43:56.063Z,98984.09
2024-01-14T20:46:22.467Z,99016.78
2024-01-14T20:48:49.366Z,99008.44
2024-01-14T20:51:16.216Z,99018.31
2024-01-14T20:53:47.236Z,98982.41
2024-01-14T20:56:16.719Z,99003.94
2024-01-14T20:58:43.249Z,98994.88
2024-01-14T21:01:11.741Z,98991.78
2024-01-14T21:03:40.015Z,98989.41
2024-01-14T21:06:08.174Z,98992.28
2024-01-14T21:08:34.889Z,98994.06
2024-01-14T21:11:01.476Z,98991.69
2024-01-14T21:13:30.755Z,99005.88
2024-01-14T21:15:57.395Z,98990.94
2024-01-14T21:18:25.458Z,98962.41
2024-01-14T21:20:54.963Z,98991.31
2024-01-14T21:23:29.177Z,98975.34
2024-01-14T21:25:58.169Z,98955.72
2024-01-14T21:28:26.880Z,98978.22
2024-01-14T21:30:55.885Z,98960.16
2024-01-14T21:33:22.543Z,98944.69
2024-01-14T21:35:53.414Z,98959.84
2024-01-14T21:38:20.163Z,98975.41
2024-01-14T21:40:46.625Z,98960.44
2024-01-14T21:43:13.099Z,98971.72
2024-01-14T21:45:39.848Z,98961.28
2024-01-14T21:48:06.674Z,98963.31
2024-01-14T21:50:34.924Z,98951.78
2024-01-14T21:53:01.432Z,98946.69
2024-01-14T21:55:44.037Z,98961.94
2024-01-14T22:00:52.137Z,98966.72
2024-01-14T22:03:18.740Z,98979.69
2024-01-14T22:05:45.534Z,98985.69
2024-01-14T22:08:12.283Z,98983.53
2024-01-14T22:10:39.646Z,98993.75
2024-01-14T22:13:06.191Z,99002.59
2024-01-14T22:15:32.973Z,99025.19
2024-01-14T22:18:01.359Z,99009.19
2024-01-14T22:20:28.020Z,99030.34
2024-01-14T22:22:54.770Z,99022.84
2024-01-14T22:25:21.283Z,99030.44
2024-01-14T22:27:51.957Z,99021.84
2024-01-14T22:30:20.007Z,99013.91
2024-01-14T22:32:49.078Z,99007.50
2024-01-14T22:35:17.869Z,99012.69
2024-01-14T22:37:47.681Z,99019.97
2024-01-14T22:40:14.866Z,99044.19
2024-01-14T22:42:41.428Z,99019.69
2024-01-14T22:45:08.139Z,99036.66
2024-01-14T22:47:37.785Z,99033.91
2024-01-14T22:50:07.064Z,99008.00
2024-01-14T22:52:33.544Z,99036.25
2024-01-14T22:54:59.966Z,99013.91
2024-01-14T22:57:26.501Z,99041.22
2024-01-14T22:59:52.992Z,99043.91
2024-01-14T23:02:19.318Z,99023.97
2024-01-14T23:04:45.881Z,99020.44
2024-01-14T23:07:12.509Z,99033.84
2024-01-14T23:09:38.964Z,99020.44
2024-01-14T23:12:05.926Z,99014.25
2024-01-14T23:14:35.306Z,99036.88
2024-01-14T23:17:01.950Z,98997.78
2024-01-14T23:19:28.511Z,99016.44
2024-01-14T23:21:55.135Z,99029.78
2024-01-14T23:24:24.195Z,99008.50
2024-01-14T23:26:50.786Z,99024.91
2024-01-14T23:29:17.329Z,99041.22
2024-01-14T23:31:43.943Z,99007.50
2024-01-14T23:34:10.502Z,99047.41
2024-01-14T23:36:37.045Z,99050.53
2024-01-14T23:39:03.598Z,99049.16
2024-01-14T23:41:30.170Z,99046.63
2024-01-14T23:43:56.666Z,99025.75
2024-01-14T23:46:23.141Z,99064.47
2024-01-14T23:48:49.731Z,99063.69
2024-01-14T23:51:16.292Z,99066.22
2024-01-14T23:53:42.754Z,99063.63
2024-01-14T23:56:09.221Z,99054.66
2024-01-14T23:58:35.665Z,99056.22
